Time;durP1;ratioP1;P1;durP2;ratioP2;P2;SDS_P1;SDS_P2;PMS_P1;PMS_P2;Temp;Humidity;BMP_temperature;BMP_pressure;BME280_temperature;BME280_humidity;BME280_pressure;Samples;Min_cycle;Max_cycle;Signal;HPM_P1;HPM_P2
2023/05/28 00:00:30;;;;;;;7.07;6.40;;;18.60;51.60;;;;;;5018825;28;20209;-88
2023/05/28 00:02:56;;;;;;;6.95;6.25;;;18.50;51.80;;;;;;5018416;28;20184;-88
2023/05/28 00:05:22;;;;;;;7.63;6.80;;;18.50;51.40;;;;;;5017873;28;20201;-88
2023/05/28 00:07:48;;;;;;;7.72;6.95;;;18.50;51.80;;;;;;5017341;28;20173;-88
2023/05/28 00:10:14;;;;;;;7.53;6.75;;;18.40;52.60;;;;;;5018805;28;20189;-88
2023/05/28 00:12:39;;;;;;;7.70;6.97;;;18.40;51.80;;;;;;5018514;28;20181;-88
2023/05/28 00:15:06;;;;;;;8.35;6.60;;;18.40;52.40;;;;;;5020510;28;20206;-87
2023/05/28 00:17:36;;;;;;;8.05;7.25;;;18.20;53.40;;;;;;5018476;28;20205;-87
2023/05/28 00:20:03;;;;;;;8.07;7.30;;;18.20;52.70;;;;;;5019026;28;20170;-87
2023/05/28 00:22:29;;;;;;;7.80;7.03;;;18.10;52.60;;;;;;5017573;28;20196;-87
2023/05/28 00:24:55;;;;;;;7.38;6.68;;;18.10;51.90;;;;;;5017683;28;20205;-87
2023/05/28 00:27:21;;;;;;;7.10;6.40;;;18.00;50.70;;;;;;4999580;28;20226;-86
2023/05/28 00:29:46;;;;;;;9.43;6.72;;;18.10;50.80;;;;;;5026070;28;20169;-88
2023/05/28 00:32:12;;;;;;;8.52;7.43;;;18.20;50.50;;;;;;5036051;28;20181;-86
2023/05/28 00:34:38;;;;;;;7.80;7.10;;;18.30;49.00;;;;;;5036667;28;20184;-88
2023/05/28 00:37:04;;;;;;;6.68;6.03;;;18.20;48.30;;;;;;5040616;28;21015;-89
2023/05/28 00:39:30;;;;;;;8.23;6.67;;;17.80;49.90;;;;;;5041685;28;20572;-87
2023/05/28 00:42:03;;;;;;;7.30;6.70;;;17.70;50.40;;;;;;5025986;28;20747;-88
2023/05/28 00:44:32;;;;;;;8.05;6.43;;;17.70;50.20;;;;;;5010550;28;20716;-87
2023/05/28 00:46:59;;;;;;;9.55;6.80;;;17.60;49.90;;;;;;5005008;28;20214;-87
2023/05/28 00:49:25;;;;;;;9.02;6.47;;;17.80;50.10;;;;;;5021835;28;20246;-87
2023/05/28 00:51:51;;;;;;;7.13;6.20;;;17.80;49.00;;;;;;5022029;28;20193;-88
2023/05/28 00:54:17;;;;;;;9.25;6.10;;;17.80;49.30;;;;;;5022185;28;20199;-88
2023/05/28 00:56:43;;;;;;;7.70;6.50;;;17.80;49.70;;;;;;5022522;28;20208;-86
2023/05/28 00:59:10;;;;;;;6.30;5.70;;;17.70;49.80;;;;;;5023000;28;20226;-87
2023/05/28 01:01:37;;;;;;;10.30;6.43;;;17.60;49.90;;;;;;5027321;28;20199;-88
2023/05/28 01:04:03;;;;;;;7.32;6.07;;;17.70;50.50;;;;;;5041667;28;20194;-88
2023/05/28 01:06:29;;;;;;;7.68;6.13;;;17.70;49.90;;;;;;5041512;28;20213;-88
2023/05/28 01:08:56;;;;;;;7.07;6.25;;;17.60;50.70;;;;;;5041607;28;20233;-89
2023/05/28 01:11:23;;;;;;;7.60;5.97;;;17.60;50.30;;;;;;5041210;28;20211;-87
2023/05/28 01:13:50;;;;;;;6.75;5.75;;;17.60;50.40;;;;;;5040279;28;20180;-87
2023/05/28 01:16:16;;;;;;;7.93;6.00;;;17.50;50.50;;;;;;5042189;28;20220;-87
2023/05/28 01:18:44;;;;;;;6.23;5.63;;;17.30;51.00;;;;;;5009323;28;20199;-87
2023/05/28 01:21:11;;;;;;;9.07;6.00;;;17.10;51.70;;;;;;5019771;28;20201;-88
2023/05/28 01:23:44;;;;;;;10.07;6.50;;;17.10;52.00;;;;;;5020566;28;20181;-87
2023/05/28 01:26:19;;;;;;;8.63;6.20;;;17.00;52.40;;;;;;5021059;28;20232;-88
2023/05/28 01:28:46;;;;;;;11.67;6.50;;;16.90;52.60;;;;;;5019659;28;20200;-85
2023/05/28 01:31:12;;;;;;;6.90;5.63;;;16.80;52.60;;;;;;5019016;28;20212;-87
2023/05/28 01:33:41;;;;;;;7.63;5.73;;;16.70;52.90;;;;;;5021906;28;20181;-87
2023/05/28 01:36:15;;;;;;;6.47;5.77;;;16.60;53.40;;;;;;5040952;28;20220;-88
2023/05/28 01:38:46;;;;;;;7.37;6.20;;;16.40;53.80;;;;;;5040614;28;20169;-87
2023/05/28 01:41:13;;;;;;;6.10;5.50;;;16.50;53.70;;;;;;5020461;28;20675;-88
2023/05/28 01:43:41;;;;;;;7.13;5.93;;;16.70;53.10;;;;;;5004421;28;20188;-87
2023/05/28 01:46:08;;;;;;;9.07;6.23;;;16.80;52.50;;;;;;5021052;28;20193;-86
2023/05/28 01:48:34;;;;;;;8.33;6.07;;;16.70;52.70;;;;;;5021208;28;20170;-87
2023/05/28 01:51:00;;;;;;;10.07;6.77;;;16.70;52.50;;;;;;5021385;28;20272;-87
2023/05/28 01:53:25;;;;;;;6.70;6.00;;;16.60;52.90;;;;;;5020217;28;20200;-86
2023/05/28 01:55:51;;;;;;;10.10;6.37;;;16.70;53.10;;;;;;5020688;28;20288;-85
2023/05/28 01:58:17;;;;;;;6.80;6.10;;;16.80;52.70;;;;;;5003225;28;20197;-87
2023/05/28 02:00:51;;;;;;;6.83;5.93;;;16.80;52.70;;;;;;5020520;28;20204;-88
2023/05/28 02:03:17;;;;;;;10.30;6.10;;;16.70;52.70;;;;;;5020216;28;20165;-87
2023/05/28 02:05:43;;;;;;;7.30;6.00;;;16.50;53.20;;;;;;5024129;28;20207;-88
2023/05/28 02:08:09;;;;;;;7.53;5.87;;;16.40;53.80;;;;;;5037760;28;20181;-89
2023/05/28 02:10:35;;;;;;;8.50;6.13;;;16.40;53.80;;;;;;5019963;28;20714;-87
2023/05/28 02:13:00;;;;;;;7.70;6.00;;;16.40;53.90;;;;;;5003519;28;20214;-87
2023/05/28 02:15:26;;;;;;;7.20;6.17;;;16.30;54.10;;;;;;5020069;28;20209;-88
2023/05/28 02:17:52;;;;;;;6.13;5.47;;;16.30;54.30;;;;;;5001537;28;20174;-89
2023/05/28 02:20:17;;;;;;;6.83;5.73;;;16.30;54.50;;;;;;5000910;28;20273;-87
2023/05/28 02:22:43;;;;;;;6.73;6.07;;;16.20;54.50;;;;;;5018262;28;20191;-87
2023/05/28 02:25:09;;;;;;;7.30;6.60;;;16.30;54.40;;;;;;5018942;28;20204;-87
2023/05/28 02:27:35;;;;;;;6.33;5.73;;;16.10;55.00;;;;;;5017251;28;20795;-86
2023/05/28 02:30:01;;;;;;;6.57;5.90;;;16.00;55.50;;;;;;5018079;28;20548;-87
2023/05/28 02:32:27;;;;;;;7.03;6.10;;;16.20;55.30;;;;;;5017371;28;20174;-88
2023/05/28 02:34:54;;;;;;;6.17;5.57;;;16.20;55.00;;;;;;5018678;28;20220;-88
2023/05/28 02:37:23;;;;;;;7.43;5.90;;;16.10;55.20;;;;;;5000367;28;20220;-87
2023/05/28 02:39:50;;;;;;;7.30;5.97;;;16.00;55.50;;;;;;5034183;28;20206;-87
2023/05/28 02:42:16;;;;;;;6.53;5.93;;;15.90;56.10;;;;;;5021022;28;20224;-88
2023/05/28 02:44:41;;;;;;;10.87;6.27;;;15.80;56.50;;;;;;5029525;28;20647;-87
2023/05/28 02:47:07;;;;;;;6.77;5.70;;;15.90;56.40;;;;;;5020247;28;20250;-87
2023/05/28 02:49:32;;;;;;;7.40;5.93;;;16.00;56.00;;;;;;5020402;28;20200;-87
2023/05/28 02:51:58;;;;;;;5.83;5.23;;;16.00;55.70;;;;;;5025868;28;20579;-88
2023/05/28 02:54:23;;;;;;;8.47;6.07;;;15.90;55.90;;;;;;5031162;28;20183;-86
2023/05/28 02:56:49;;;;;;;6.83;5.67;;;16.00;55.90;;;;;;5047541;28;20209;-87
2023/05/28 02:59:15;;;;;;;6.53;5.80;;;16.00;56.20;;;;;;5047159;28;20200;-87
2023/05/28 03:01:40;;;;;;;9.23;6.40;;;16.00;55.80;;;;;;5046360;28;20229;-87
2023/05/28 03:04:06;;;;;;;6.83;5.60;;;16.10;55.90;;;;;;5029668;28;20187;-88
2023/05/28 03:06:33;;;;;;;8.23;6.13;;;16.10;55.90;;;;;;5046963;28;20235;-86
2023/05/28 03:08:58;;;;;;;5.70;5.20;;;16.20;55.60;;;;;;5037812;28;20188;-86
2023/05/28 03:11:25;;;;;;;7.27;5.73;;;16.00;57.10;;;;;;5027445;28;20189;-86
2023/05/28 03:13:50;;;;;;;7.80;5.97;;;16.00;56.20;;;;;;5027180;28;20187;-86
2023/05/28 03:16:16;;;;;;;7.00;6.40;;;16.10;56.50;;;;;;5009160;28;20244;-89
2023/05/28 03:18:41;;;;;;;8.30;6.37;;;16.20;56.20;;;;;;5026647;28;20656;-88
2023/05/28 03:21:07;;;;;;;8.13;6.27;;;16.10;56.10;;;;;;5027395;28;20216;-86
2023/05/28 03:23:33;;;;;;;6.50;5.90;;;16.00;56.40;;;;;;5008925;28;20181;-87
2023/05/28 03:25:58;;;;;;;8.87;6.27;;;16.10;56.90;;;;;;5026131;28;20230;-86
2023/05/28 03:28:24;;;;;;;8.57;6.30;;;16.00;56.70;;;;;;5038141;28;20193;-86
2023/05/28 03:30:50;;;;;;;8.53;6.00;;;15.80;57.20;;;;;;5014648;28;20230;-86
2023/05/28 03:33:16;;;;;;;6.43;5.80;;;15.70;58.10;;;;;;5009120;28;20199;-87
2023/05/28 03:35:42;;;;;;;10.13;5.63;;;15.40;59.40;;;;;;5025823;28;20886;-86
2023/05/28 03:38:07;;;;;;;8.10;6.20;;;15.20;60.50;;;;;;5009784;28;20195;-87
2023/05/28 03:40:33;;;;;;;9.40;5.97;;;15.10;61.10;;;;;;5009774;28;20189;-87
2023/05/28 03:42:58;;;;;;;10.43;5.90;;;15.10;61.30;;;;;;5010829;28;20200;-86
2023/05/28 03:45:24;;;;;;;8.20;6.20;;;15.00;61.90;;;;;;5028553;28;20212;-86
2023/05/28 03:47:50;;;;;;;8.57;6.53;;;14.90;62.30;;;;;;5047961;28;20191;-85
2023/05/28 03:50:15;;;;;;;6.40;5.67;;;15.00;62.10;;;;;;5047906;28;20188;-85
2023/05/28 03:52:41;;;;;;;7.50;6.50;;;15.00;62.00;;;;;;5047778;28;20187;-86
2023/05/28 03:55:08;;;;;;;6.63;5.93;;;15.00;61.90;;;;;;5047952;28;20200;-87
2023/05/28 03:57:33;;;;;;;8.27;6.23;;;15.10;61.50;;;;;;5048328;28;20187;-86
2023/05/28 03:59:59;;;;;;;8.53;6.30;;;15.00;62.10;;;;;;5046855;28;20465;-86
2023/05/28 04:02:25;;;;;;;9.47;6.27;;;15.00;62.50;;;;;;5029146;28;20210;-85
2023/05/28 04:04:51;;;;;;;8.23;6.67;;;14.90;62.70;;;;;;5047584;28;20219;-86
2023/05/28 04:07:16;;;;;;;7.20;6.50;;;14.90;62.50;;;;;;5046939;28;20644;-87
2023/05/28 04:09:42;;;;;;;7.33;6.07;;;15.00;62.50;;;;;;5029136;28;20322;-86
2023/05/28 04:12:08;;;;;;;7.40;5.67;;;14.90;62.80;;;;;;5049718;28;20178;-87
2023/05/28 04:14:34;;;;;;;10.57;5.83;;;14.90;63.10;;;;;;5050049;28;20293;-86
2023/05/28 04:16:59;;;;;;;10.53;6.33;;;14.90;63.10;;;;;;5048319;28;20210;-88
2023/05/28 04:19:25;;;;;;;7.17;5.80;;;15.00;62.90;;;;;;5048807;28;20235;-86
2023/05/28 04:21:51;;;;;;;6.80;6.10;;;15.00;63.10;;;;;;5041337;28;20239;-87
2023/05/28 04:24:16;;;;;;;12.20;7.00;;;14.90;64.10;;;;;;5012454;28;20181;-88
2023/05/28 04:26:42;;;;;;;7.00;5.90;;;14.70;64.40;;;;;;5029962;28;20209;-85
2023/05/28 04:29:08;;;;;;;9.13;6.30;;;14.70;65.20;;;;;;5029914;28;20270;-88
2023/05/28 04:31:33;;;;;;;9.93;6.87;;;14.60;65.50;;;;;;5029978;28;20208;-87
2023/05/28 04:34:00;;;;;;;8.50;6.40;;;14.60;65.60;;;;;;5036107;28;20190;-87
2023/05/28 04:36:29;;;;;;;7.80;6.50;;;14.50;66.60;;;;;;5030736;28;20277;-86
2023/05/28 04:38:56;;;;;;;7.43;6.50;;;14.40;67.10;;;;;;5032255;28;20182;-87
2023/05/28 04:41:23;;;;;;;9.57;6.50;;;14.50;67.30;;;;;;5032018;28;20202;-87
2023/05/28 04:43:49;;;;;;;7.03;6.00;;;14.40;67.50;;;;;;5012402;28;20174;-86
2023/05/28 04:46:14;;;;;;;7.90;6.30;;;14.50;67.40;;;;;;5012249;28;20304;-87
2023/05/28 04:48:40;;;;;;;7.60;5.93;;;14.50;67.10;;;;;;5022465;28;20210;-86
2023/05/28 04:51:07;;;;;;;9.53;6.20;;;14.60;67.10;;;;;;5030970;28;20220;-88
2023/05/28 04:53:36;;;;;;;8.23;6.50;;;14.50;67.70;;;;;;5051763;28;20190;-86
2023/05/28 04:56:03;;;;;;;10.20;6.80;;;14.50;67.70;;;;;;5034322;28;20209;-86
2023/05/28 04:58:29;;;;;;;8.40;6.50;;;14.70;67.20;;;;;;5051439;28;20172;-87
2023/05/28 05:00:55;;;;;;;8.60;6.40;;;14.70;67.10;;;;;;5050615;28;20195;-85
2023/05/28 05:03:21;;;;;;;9.83;6.37;;;14.60;67.20;;;;;;5043677;28;20184;-87
2023/05/28 05:05:47;;;;;;;9.67;6.10;;;14.70;67.60;;;;;;5055941;28;20229;-88
2023/05/28 05:08:13;;;;;;;7.73;6.73;;;14.80;67.30;;;;;;5049458;28;20173;-86
2023/05/28 05:10:39;;;;;;;8.87;6.43;;;14.80;67.30;;;;;;5013865;28;20217;-87
2023/05/28 05:13:05;;;;;;;7.90;6.20;;;14.80;67.50;;;;;;5029153;28;20254;-86
2023/05/28 05:15:32;;;;;;;10.10;7.23;;;14.70;67.40;;;;;;5029931;28;20217;-88
2023/05/28 05:17:58;;;;;;;7.97;6.30;;;14.70;67.50;;;;;;5011460;28;20182;-86
2023/05/28 05:20:23;;;;;;;9.53;6.87;;;14.80;67.20;;;;;;5029727;28;20186;-86
2023/05/28 05:22:50;;;;;;;8.40;6.27;;;14.80;67.90;;;;;;5028134;28;20199;-87
2023/05/28 05:25:15;;;;;;;8.90;6.03;;;14.80;66.90;;;;;;5028911;28;20216;-86
2023/05/28 05:27:41;;;;;;;8.07;6.30;;;14.90;66.80;;;;;;5028104;28;20183;-86
2023/05/28 05:30:08;;;;;;;8.23;5.80;;;15.10;66.20;;;;;;5029279;28;20252;-86
2023/05/28 05:32:33;;;;;;;6.80;5.60;;;15.10;66.10;;;;;;5029151;28;20189;-87
2023/05/28 05:34:59;;;;;;;10.80;6.53;;;15.20;65.80;;;;;;5031023;28;20243;-86
2023/05/28 05:37:24;;;;;;;9.57;6.40;;;15.20;65.70;;;;;;5013504;28;20188;-86
2023/05/28 05:39:50;;;;;;;9.10;6.47;;;15.30;65.30;;;;;;5030479;28;20654;-87
2023/05/28 05:42:15;;;;;;;8.13;5.97;;;15.30;64.80;;;;;;5012285;28;20391;-86
2023/05/28 05:44:41;;;;;;;9.70;6.43;;;15.40;64.40;;;;;;5020304;28;20205;-88
2023/05/28 05:47:07;;;;;;;7.27;5.83;;;15.40;64.60;;;;;;5009894;28;20212;-86
2023/05/28 05:49:32;;;;;;;7.87;6.80;;;15.50;63.90;;;;;;5029264;28;20189;-86
2023/05/28 05:51:58;;;;;;;8.03;6.30;;;15.60;63.50;;;;;;5011446;28;20185;-88
2023/05/28 05:54:24;;;;;;;8.83;6.50;;;15.60;63.80;;;;;;5029298;28;20185;-87
2023/05/28 05:56:52;;;;;;;9.47;6.03;;;15.70;63.50;;;;;;5030121;28;20206;-87
2023/05/28 05:59:18;;;;;;;7.73;6.83;;;15.70;63.20;;;;;;5030143;28;20178;-86
2023/05/28 06:01:43;;;;;;;9.53;6.00;;;15.80;62.50;;;;;;5016116;28;20210;-82
2023/05/28 06:04:09;;;;;;;6.60;6.00;;;15.80;62.10;;;;;;5039088;28;20217;-88
2023/05/28 06:06:36;;;;;;;7.77;6.03;;;16.00;61.30;;;;;;5011670;28;20227;-86
2023/05/28 06:09:02;;;;;;;11.97;6.53;;;16.00;61.00;;;;;;5028872;28;20283;-86
2023/05/28 06:11:28;;;;;;;7.60;6.20;;;16.00;60.80;;;;;;5028645;28;20186;-86
2023/05/28 06:13:54;;;;;;;6.73;6.03;;;16.00;60.80;;;;;;5027775;28;20268;-86
2023/05/28 06:16:19;;;;;;;6.47;5.73;;;16.10;60.60;;;;;;5027652;28;20213;-85
2023/05/28 06:18:45;;;;;;;9.17;5.60;;;16.20;60.20;;;;;;5025999;28;20208;-86
2023/05/28 06:21:11;;;;;;;7.13;5.77;;;16.20;59.50;;;;;;5041825;28;20259;-86
2023/05/28 06:23:37;;;;;;;7.63;5.67;;;16.30;59.10;;;;;;5039467;28;20195;-85
2023/05/28 06:26:03;;;;;;;7.53;5.97;;;16.50;58.80;;;;;;5040556;28;20208;-86
2023/05/28 06:28:29;;;;;;;8.63;6.63;;;16.70;59.00;;;;;;5030250;28;20216;-86
2023/05/28 06:30:54;;;;;;;7.17;6.13;;;16.80;58.50;;;;;;5012586;28;20199;-88
2023/05/28 06:33:20;;;;;;;7.90;5.90;;;16.90;58.40;;;;;;5035677;28;20202;-87
2023/05/28 06:35:46;;;;;;;6.97;6.10;;;16.90;57.20;;;;;;5032543;28;20199;-87
2023/05/28 06:38:11;;;;;;;7.37;6.57;;;16.90;57.10;;;;;;5035492;28;20190;-88
2023/05/28 06:40:37;;;;;;;7.20;6.03;;;16.90;58.00;;;;;;5048780;28;20220;-87
2023/05/28 06:43:03;;;;;;;9.23;5.70;;;16.80;58.50;;;;;;5022350;28;20212;-86
2023/05/28 06:45:28;;;;;;;7.57;6.43;;;16.80;58.30;;;;;;5015885;28;20285;-88
2023/05/28 06:47:54;;;;;;;8.70;6.20;;;17.00;57.40;;;;;;5010070;28;20187;-87
2023/05/28 06:50:20;;;;;;;9.03;6.07;;;17.10;57.50;;;;;;5008508;28;20182;-86
2023/05/28 06:52:46;;;;;;;5.97;5.33;;;17.10;56.80;;;;;;5008671;28;20180;-87
2023/05/28 06:55:11;;;;;;;8.23;5.87;;;17.20;56.80;;;;;;5026502;28;20205;-85
2023/05/28 06:57:37;;;;;;;8.50;6.00;;;17.50;54.90;;;;;;5036133;28;20688;-86
2023/05/28 07:00:16;;;;;;;6.53;5.63;;;17.50;54.00;;;;;;5035800;28;20189;-86
2023/05/28 07:02:44;;;;;;;7.77;6.60;;;17.70;53.10;;;;;;5028153;28;20205;-86
2023/05/28 07:05:10;;;;;;;10.20;6.70;;;17.90;53.40;;;;;;5029655;28;20235;-85
2023/05/28 07:07:36;;;;;;;9.17;6.03;;;17.90;53.60;;;;;;5029523;28;20185;-86
2023/05/28 07:10:02;;;;;;;7.57;6.33;;;18.00;54.10;;;;;;5027772;28;20207;-85
2023/05/28 07:12:29;;;;;;;6.93;6.23;;;18.00;52.50;;;;;;5032156;28;20200;-87
2023/05/28 07:14:55;;;;;;;10.27;6.67;;;18.20;53.20;;;;;;5026978;28;20267;-86
2023/05/28 07:17:20;;;;;;;6.80;6.10;;;18.10;51.70;;;;;;5020260;28;20219;-85
2023/05/28 07:19:47;;;;;;;7.67;6.77;;;17.90;52.10;;;;;;5027377;28;20181;-85
2023/05/28 07:22:12;;;;;;;8.47;6.37;;;17.90;53.20;;;;;;5028307;28;20209;-86
2023/05/28 07:24:38;;;;;;;6.77;6.17;;;18.10;52.50;;;;;;5047833;28;20234;-87
2023/05/28 07:27:04;;;;;;;8.13;6.77;;;18.20;52.40;;;;;;5047846;28;20177;-87
2023/05/28 07:29:29;;;;;;;9.63;6.43;;;18.20;50.40;;;;;;5047975;28;20691;-85
2023/05/28 07:31:55;;;;;;;7.60;6.40;;;18.20;51.90;;;;;;5045083;28;20643;-86
2023/05/28 07:34:21;;;;;;;7.33;6.40;;;18.40;52.00;;;;;;5048809;28;20184;-86
2023/05/28 07:36:46;;;;;;;7.73;6.53;;;18.40;52.20;;;;;;5048154;28;20212;-85
2023/05/28 07:39:13;;;;;;;6.53;5.90;;;18.40;51.50;;;;;;5048147;28;20197;-86
2023/05/28 07:41:38;;;;;;;9.02;6.70;;;18.50;51.50;;;;;;5028793;28;20254;-86
2023/05/28 07:44:06;;;;;;;11.50;6.88;;;18.70;50.10;;;;;;5044022;28;20184;-85
2023/05/28 07:46:32;;;;;;;9.63;6.35;;;18.70;50.30;;;;;;5031309;28;20204;-86
2023/05/28 07:48:57;;;;;;;6.90;6.22;;;18.80;51.00;;;;;;5032052;28;20201;-87
2023/05/28 07:51:23;;;;;;;8.07;6.38;;;18.90;49.70;;;;;;5033273;28;20203;-87
2023/05/28 07:53:49;;;;;;;7.43;6.57;;;19.10;48.70;;;;;;5033464;28;20208;-88
2023/05/28 07:56:14;;;;;;;7.22;6.50;;;19.20;48.00;;;;;;5032348;28;20227;-85
2023/05/28 07:58:44;;;;;;;7.15;6.30;;;19.40;47.50;;;;;;5039627;28;20227;-87
2023/05/28 08:01:10;;;;;;;7.78;6.40;;;19.60;47.60;;;;;;5045898;28;20204;-87
2023/05/28 08:03:36;;;;;;;7.53;6.82;;;19.50;47.20;;;;;;5035087;28;20197;-87
2023/05/28 08:06:02;;;;;;;7.95;7.00;;;19.70;47.20;;;;;;5027847;28;20198;-87
2023/05/28 08:08:28;;;;;;;7.15;6.25;;;19.70;47.20;;;;;;5037146;28;20188;-88
2023/05/28 08:10:53;;;;;;;11.85;7.25;;;19.80;46.50;;;;;;5026864;28;20441;-87
2023/05/28 08:13:20;;;;;;;8.88;6.75;;;19.90;45.60;;;;;;5027723;28;20220;-87
2023/05/28 08:15:45;;;;;;;8.00;6.78;;;19.90;46.40;;;;;;5030333;28;20273;-88
2023/05/28 08:18:11;;;;;;;10.23;7.53;;;20.10;46.50;;;;;;5047249;28;20169;-87
2023/05/28 08:20:37;;;;;;;11.43;6.43;;;20.20;45.90;;;;;;5047864;28;20201;-85
2023/05/28 08:23:02;;;;;;;10.93;7.15;;;20.30;46.10;;;;;;5033298;28;20182;-87
2023/05/28 08:25:28;;;;;;;7.93;7.00;;;20.40;46.60;;;;;;5033023;28;20199;-88
2023/05/28 08:27:54;;;;;;;7.70;6.90;;;20.70;46.30;;;;;;5030437;28;20193;-87
2023/05/28 08:30:20;;;;;;;9.50;7.60;;;20.80;44.90;;;;;;5030662;28;20182;-86
2023/05/28 08:32:45;;;;;;;9.30;7.18;;;20.80;44.60;;;;;;5014554;28;20183;-88
2023/05/28 08:35:12;;;;;;;6.85;6.25;;;20.60;45.30;;;;;;5029530;28;20225;-88
2023/05/28 08:37:38;;;;;;;8.80;6.78;;;20.50;44.60;;;;;;5029517;28;20179;-88
2023/05/28 08:40:08;;;;;;;8.30;6.65;;;20.70;45.40;;;;;;5030860;28;20189;-87
2023/05/28 08:42:37;;;;;;;7.78;6.97;;;21.00;44.00;;;;;;5047392;28;20234;-86
2023/05/28 08:45:03;;;;;;;9.05;6.93;;;21.20;44.20;;;;;;5035643;28;20190;-87
2023/05/28 08:47:32;;;;;;;7.10;6.50;;;21.40;42.60;;;;;;4989655;28;20227;-86
2023/05/28 08:50:06;;;;;;;8.10;7.40;;;21.60;42.70;;;;;;5015079;28;20185;-88
2023/05/28 08:52:33;;;;;;;8.52;7.75;;;21.70;42.00;;;;;;5017838;28;20189;-86
2023/05/28 08:54:59;;;;;;;7.97;7.20;;;21.80;40.70;;;;;;5017602;28;20319;-85
2023/05/28 08:57:28;;;;;;;9.43;7.80;;;21.90;40.40;;;;;;5014056;28;21115;-86
2023/05/28 08:59:54;;;;;;;9.20;8.32;;;21.90;41.00;;;;;;5011205;28;20217;-86
2023/05/28 09:02:25;;;;;;;8.75;7.90;;;22.00;41.60;;;;;;5008093;28;20209;-88
2023/05/28 09:04:50;;;;;;;8.18;7.38;;;22.20;40.80;;;;;;5002062;28;20197;-87
2023/05/28 09:07:16;;;;;;;8.73;7.93;;;22.20;40.20;;;;;;5003171;28;20221;-88
2023/05/28 09:09:42;;;;;;;9.00;8.10;;;22.20;40.40;;;;;;5005952;28;20197;-87
2023/05/28 09:12:12;;;;;;;8.93;8.02;;;22.30;40.50;;;;;;5002221;28;20194;-88
2023/05/28 09:14:40;;;;;;;8.82;8.02;;;22.30;40.60;;;;;;5004435;28;20197;-87
2023/05/28 09:17:08;;;;;;;9.15;8.25;;;22.60;39.40;;;;;;5002679;28;20196;-87
2023/05/28 09:19:34;;;;;;;12.85;8.30;;;22.70;39.30;;;;;;5004584;28;20236;-87
2023/05/28 09:22:01;;;;;;;8.70;7.90;;;22.90;39.10;;;;;;5005150;28;21324;-87
2023/05/28 09:24:27;;;;;;;8.90;8.05;;;23.00;38.90;;;;;;5008260;28;20630;-89
2023/05/28 09:26:57;;;;;;;10.15;7.90;;;23.30;38.50;;;;;;4987479;28;20698;-86
2023/05/28 09:29:24;;;;;;;8.50;7.90;;;23.60;38.40;;;;;;5001857;28;20697;-87
2023/05/28 09:31:58;;;;;;;9.63;8.60;;;23.80;37.60;;;;;;5007104;28;20193;-87
2023/05/28 09:37:20;;;;;;;9.38;8.50;;;23.70;36.70;;;;;;5002045;28;20201;-87
2023/05/28 09:43:24;;;;;;;9.18;8.30;;;24.00;36.70;;;;;;4987191;28;20259;-87
2023/05/28 09:49:19;;;;;;;9.70;8.60;;;24.30;37.50;;;;;;5004112;28;20209;-87
2023/05/28 09:51:55;;;;;;;9.65;8.95;;;24.70;36.60;;;;;;4986372;28;20229;-87
2023/05/28 09:57:12;;;;;;;10.38;9.57;;;24.90;36.00;;;;;;4911384;29;20225;-88
2023/05/28 09:59:38;;;;;;;10.88;9.93;;;25.00;36.30;;;;;;4991432;28;20264;-86
2023/05/28 10:02:36;;;;;;;11.05;10.05;;;25.10;35.30;;;;;;5002065;28;20233;-87
2023/05/28 10:05:33;;;;;;;11.32;10.32;;;25.40;35.20;;;;;;4986303;28;20847;-87
2023/05/28 10:08:24;;;;;;;11.93;11.02;;;25.20;36.00;;;;;;4986573;28;20194;-87
2023/05/28 10:11:00;;;;;;;11.73;10.77;;;25.20;34.00;;;;;;4988545;28;20193;-91
2023/05/28 10:13:53;;;;;;;11.23;10.30;;;25.00;34.40;;;;;;4987387;28;20777;-89
2023/05/28 10:16:20;;;;;;;12.30;11.20;;;25.20;34.70;;;;;;4986237;28;20260;-87
2023/05/28 10:18:48;;;;;;;11.73;10.88;;;25.40;33.80;;;;;;5005378;28;20196;-88
2023/05/28 10:21:30;;;;;;;13.00;12.00;;;25.60;32.30;;;;;;5006764;28;20209;-87
2023/05/28 10:23:58;;;;;;;13.77;12.73;;;26.00;30.40;;;;;;4989266;28;20208;-88
2023/05/28 10:26:36;;;;;;;13.55;12.48;;;26.20;29.80;;;;;;4989354;28;20213;-87
2023/05/28 10:29:07;;;;;;;14.20;13.30;;;26.40;29.70;;;;;;4988269;28;20196;-88
2023/05/28 10:31:33;;;;;;;14.02;12.98;;;26.60;29.20;;;;;;5003661;28;20222;-88
2023/05/28 10:34:15;;;;;;;13.38;12.48;;;26.20;31.30;;;;;;4991477;28;20200;-88
2023/05/28 10:36:53;;;;;;;13.57;12.40;;;25.90;31.90;;;;;;5004998;28;20274;-89
2023/05/28 10:39:18;;;;;;;14.10;13.00;;;26.20;31.50;;;;;;5008231;28;20181;-89
2023/05/28 10:41:44;;;;;;;14.70;13.55;;;26.40;30.60;;;;;;5003227;28;20248;-88
2023/05/28 10:44:11;;;;;;;14.43;13.35;;;26.50;30.30;;;;;;5007810;28;20188;-88
2023/05/28 10:46:38;;;;;;;14.85;13.93;;;26.80;29.70;;;;;;4987967;28;20605;-88
2023/05/28 10:49:12;;;;;;;14.63;13.77;;;27.20;29.40;;;;;;5006911;28;20280;-88
2023/05/28 10:51:51;;;;;;;16.70;15.60;;;27.50;28.30;;;;;;4986728;28;20193;-90
2023/05/28 10:54:45;;;;;;;16.42;15.23;;;27.30;28.90;;;;;;5008966;28;20213;-88
2023/05/28 10:58:15;;;;;;;;;;;;;;;;;;;;;
2023/05/28 11:01:06;;;;;;;16.00;15.10;;;27.80;28.40;;;;;;5002562;28;20389;-88
2023/05/28 11:04:25;;;;;;;16.73;15.30;;;27.90;27.60;;;;;;5005726;28;20462;-88
2023/05/28 11:07:05;;;;;;;16.60;15.50;;;28.20;27.50;;;;;;4965720;28;20750;-88
2023/05/28 11:09:31;;;;;;;16.50;15.55;;;27.90;27.40;;;;;;4985714;28;20197;-87
2023/05/28 11:12:20;;;;;;;18.15;16.95;;;27.90;27.80;;;;;;5007334;28;20268;-88
2023/05/28 11:14:47;;;;;;;16.30;14.90;;;27.90;27.70;;;;;;5006257;28;20221;-87
2023/05/28 11:17:13;;;;;;;16.60;15.05;;;27.80;28.20;;;;;;4988045;28;20186;-87
2023/05/28 11:19:41;;;;;;;16.42;15.07;;;27.90;28.40;;;;;;5006598;28;20212;-88
2023/05/28 11:22:10;;;;;;;17.77;16.13;;;28.00;28.40;;;;;;4985563;28;20581;-87
2023/05/28 11:24:55;;;;;;;16.90;15.52;;;28.40;28.10;;;;;;4989083;28;20616;-84
2023/05/28 11:27:25;;;;;;;17.80;15.93;;;28.50;27.70;;;;;;5004825;28;20256;-86
2023/05/28 11:29:57;;;;;;;16.15;14.95;;;28.60;27.60;;;;;;5009651;28;20187;-88
2023/05/28 11:32:24;;;;;;;17.35;16.13;;;28.20;27.70;;;;;;5007953;28;20284;-88
2023/05/28 11:34:54;;;;;;;16.98;15.90;;;28.40;27.90;;;;;;5009584;28;20276;-88
2023/05/28 11:37:25;;;;;;;17.33;16.17;;;28.90;27.00;;;;;;5007383;28;20252;-88
2023/05/28 11:40:01;;;;;;;17.63;16.52;;;29.30;26.90;;;;;;5007336;28;20580;-87
2023/05/28 11:42:33;;;;;;;16.92;16.05;;;29.00;26.90;;;;;;4988020;28;20221;-87
2023/05/28 11:44:59;;;;;;;18.15;17.30;;;29.20;27.00;;;;;;4992099;28;20205;-83
2023/05/28 11:47:26;;;;;;;17.95;16.90;;;29.10;26.60;;;;;;5012228;28;20659;-86
2023/05/28 11:49:52;;;;;;;19.98;18.67;;;29.10;27.30;;;;;;5009793;28;20362;-88
2023/05/28 11:52:24;;;;;;;21.25;20.08;;;29.50;26.00;;;;;;4987649;28;20681;-87
2023/05/28 11:54:58;;;;;;;21.20;20.00;;;30.00;26.00;;;;;;5006326;28;20200;-88
2023/05/28 11:57:28;;;;;;;22.33;21.25;;;29.70;26.00;;;;;;5004536;28;20200;-87
2023/05/28 11:59:56;;;;;;;22.48;21.27;;;29.40;26.30;;;;;;5005073;28;20356;-86
2023/05/28 12:02:23;;;;;;;22.73;21.63;;;29.50;26.20;;;;;;5003558;28;20652;-87
2023/05/28 12:04:58;;;;;;;24.02;22.60;;;29.50;25.90;;;;;;5007158;28;20185;-87
2023/05/28 12:07:34;;;;;;;24.33;22.88;;;29.60;24.70;;;;;;4986650;28;20652;-86
2023/05/28 12:10:08;;;;;;;23.80;22.60;;;29.70;24.60;;;;;;5004222;28;20190;-88
2023/05/28 12:12:38;;;;;;;23.23;22.13;;;30.00;24.70;;;;;;5001966;28;20243;-88
2023/05/28 12:15:05;;;;;;;22.88;21.48;;;30.00;25.30;;;;;;5004811;28;20322;-86
2023/05/28 12:17:38;;;;;;;23.98;22.67;;;30.60;25.10;;;;;;5008107;28;20251;-87
2023/05/28 12:20:12;;;;;;;23.77;22.60;;;30.60;23.80;;;;;;5008349;28;20197;-88
2023/05/28 12:22:39;;;;;;;24.42;22.92;;;30.70;24.20;;;;;;5005022;28;20219;-87
2023/05/28 12:25:06;;;;;;;24.13;22.83;;;30.90;22.60;;;;;;5005340;28;20577;-86
2023/05/28 12:27:31;;;;;;;25.35;24.05;;;30.80;22.60;;;;;;5007301;28;20201;-87
2023/05/28 12:29:57;;;;;;;24.60;23.23;;;30.50;23.60;;;;;;5003825;28;20536;-88
2023/05/28 12:32:23;;;;;;;25.77;24.48;;;30.90;24.30;;;;;;4992035;28;20389;-87
2023/05/28 12:34:51;;;;;;;26.05;24.40;;;31.30;22.90;;;;;;5009883;28;20316;-89
2023/05/28 12:37:17;;;;;;;25.63;24.42;;;31.40;23.20;;;;;;5006409;28;20186;-87
2023/05/28 12:39:43;;;;;;;24.88;23.60;;;31.60;22.40;;;;;;5008654;28;20185;-87
2023/05/28 12:42:09;;;;;;;24.23;22.92;;;31.50;22.20;;;;;;4990408;28;20228;-88
2023/05/28 12:44:34;;;;;;;24.00;22.70;;;31.20;22.30;;;;;;5007322;28;20190;-89
2023/05/28 12:47:00;;;;;;;24.30;23.10;;;31.10;20.40;;;;;;5002401;28;20239;-87
2023/05/28 12:49:26;;;;;;;25.40;24.02;;;31.30;21.00;;;;;;5009021;28;21253;-89
2023/05/28 12:51:51;;;;;;;24.67;23.38;;;31.30;22.30;;;;;;5005481;28;20253;-88
2023/05/28 12:54:17;;;;;;;23.83;22.60;;;31.40;21.90;;;;;;4988022;28;20204;-90
2023/05/28 12:56:42;;;;;;;24.20;23.00;;;32.00;21.70;;;;;;5003997;28;20213;-87
2023/05/28 12:59:20;;;;;;;25.92;24.50;;;31.40;22.70;;;;;;5004781;28;20186;-87